Time;durP1;ratioP1;P1;durP2;ratioP2;P2;SDS_P1;SDS_P2;PMS_P1;PMS_P2;Temp;Humidity;BMP_temperature;BMP_pressure;BME280_temperature;BME280_humidity;BME280_pressure;Samples;Min_cycle;Max_cycle;Signal;HPM_P1;HPM_P2
2023/04/18 00:02:32;;;;;;;;;17.00;15.00;;;;;14.54;71.39;99012.66;5969127;29;98180;-58
2023/04/18 00:05:36;;;;;;;;;15.60;15.00;;;;;14.59;71.30;99002.72;5969577;29;96287;-59
2023/04/18 00:08:40;;;;;;;;;14.40;13.40;;;;;14.67;70.79;99001.50;5969010;29;96271;-59
2023/04/18 00:11:44;;;;;;;;;16.00;15.75;;;;;14.63;70.84;98994.91;5981524;29;96259;-59
2023/04/18 00:14:49;;;;;;;;;16.00;15.60;;;;;14.60;70.86;98995.41;5991732;29;96294;-59
2023/04/18 00:17:55;;;;;;;;;15.80;15.80;;;;;14.68;70.50;99001.25;5991507;29;96535;-59
2023/04/18 00:20:58;;;;;;;;;16.00;15.00;;;;;14.73;70.34;99008.66;5990504;29;96191;-59
2023/04/18 00:24:02;;;;;;;;;11.60;11.00;;;;;14.64;69.90;99004.72;5987646;29;96306;-59
2023/04/18 00:27:05;;;;;;;;;14.20;13.00;;;;;14.74;69.62;99010.31;5983450;29;96447;-59
2023/04/18 00:30:10;;;;;;;;;13.00;12.00;;;;;14.72;69.37;99004.28;5972607;29;96255;-59
2023/04/18 00:33:15;;;;;;;;;13.00;11.00;;;;;14.76;69.25;99007.34;5988360;29;96879;-58
2023/04/18 00:36:19;;;;;;;;;14.25;14.00;;;;;14.66;69.33;99010.72;5973352;29;96564;-59
2023/04/18 00:39:22;;;;;;;;;9.00;9.00;;;;;14.67;69.07;99010.47;5957928;29;97132;-58
2023/04/18 00:42:27;;;;;;;;;13.00;12.00;;;;;14.68;68.95;99009.41;5990666;29;96783;-59
2023/04/18 00:45:31;;;;;;;;;14.00;12.00;;;;;14.71;68.86;99010.78;5990828;29;96675;-59
2023/04/18 00:48:37;;;;;;;;;15.40;14.40;;;;;14.61;69.01;99006.00;5992420;29;96437;-59
2023/04/18 00:51:41;;;;;;;;;12.00;11.60;;;;;14.61;69.04;99005.22;5992773;29;96277;-59
2023/04/18 00:54:45;;;;;;;;;12.00;11.20;;;;;14.49;69.50;99016.13;5991158;29;96556;-60
2023/04/18 00:57:48;;;;;;;;;14.60;14.60;;;;;14.45;69.65;99000.56;5974285;29;96665;-59
2023/04/18 01:00:53;;;;;;;;;13.00;12.00;;;;;14.49;69.61;99009.84;5975068;29;96386;-59
2023/04/18 01:03:58;;;;;;;;;16.40;14.40;;;;;14.50;69.44;99008.81;5951051;29;96848;-59
2023/04/18 01:07:02;;;;;;;;;12.40;11.00;;;;;14.48;69.07;99005.50;5950378;29;96648;-58
2023/04/18 01:10:06;;;;;;;;;14.00;14.00;;;;;14.55;69.10;99017.03;5989675;29;96401;-59
2023/04/18 01:13:11;;;;;;;;;14.00;12.00;;;;;14.49;68.92;99009.84;5989691;29;97334;-59
2023/04/18 01:16:15;;;;;;;;;11.80;11.00;;;;;14.50;68.41;99020.47;5990749;29;96290;-59
2023/04/18 01:19:19;;;;;;;;;10.20;10.00;;;;;14.42;67.71;99015.44;5980304;29;96875;-59
2023/04/18 01:22:23;;;;;;;;;12.50;12.00;;;;;14.41;67.94;99021.13;5990633;29;96376;-59
2023/04/18 01:25:28;;;;;;;;;12.60;11.00;;;;;14.37;68.05;99026.19;5990881;29;96337;-59
2023/04/18 01:28:36;;;;;;;;;11.00;11.00;;;;;14.33;68.67;99020.41;5958165;29;96375;-58
2023/04/18 01:31:40;;;;;;;;;12.00;11.80;;;;;14.37;68.43;99026.19;5952729;29;96267;-59
2023/04/18 01:34:44;;;;;;;;;10.60;10.60;;;;;14.39;68.49;99036.78;5980630;29;96445;-59
2023/04/18 01:37:47;;;;;;;;;9.20;9.00;;;;;14.30;68.78;99020.06;5984268;29;96416;-59
2023/04/18 01:40:52;;;;;;;;;11.00;11.00;;;;;14.39;69.04;99024.06;5969935;29;96719;-58
2023/04/18 01:43:57;;;;;;;;;12.00;11.00;;;;;14.36;68.91;99021.84;5990096;29;96346;-58
2023/04/18 01:47:01;;;;;;;;;9.20;9.20;;;;;14.32;69.28;99020.63;5989622;29;97190;-59
2023/04/18 01:50:08;;;;;;;;;11.00;9.60;;;;;14.15;70.18;99022.47;5990169;29;96296;-59
2023/04/18 01:53:12;;;;;;;;;10.00;9.60;;;;;14.18;70.00;99024.69;5972882;29;96279;-59
2023/04/18 01:56:20;;;;;;;;;11.60;11.00;;;;;14.13;70.49;99019.16;5957598;29;96769;-59
2023/04/18 01:59:23;;;;;;;;;13.00;12.40;;;;;14.11;70.88;99030.28;5958257;29;96712;-59
2023/04/18 02:02:26;;;;;;;;;13.00;11.60;;;;;14.06;71.11;99032.88;5973497;29;96879;-59
2023/04/18 02:05:30;;;;;;;;;12.00;12.00;;;;;13.99;71.73;99028.66;5993228;29;96325;-58
2023/04/18 02:08:34;;;;;;;;;11.00;10.00;;;;;14.05;71.78;99046.69;5994150;29;96432;-58
2023/04/18 02:11:42;;;;;;;;;13.40;12.00;;;;;14.05;71.50;99035.84;5986247;29;96326;-58
2023/04/18 02:14:45;;;;;;;;;12.00;12.00;;;;;14.09;72.00;99037.81;5975642;29;96328;-60
2023/04/18 02:17:49;;;;;;;;;12.60;11.60;;;;;14.13;71.21;99040.88;5992799;29;96271;-59
2023/04/18 02:20:52;;;;;;;;;14.00;12.00;;;;;13.94;71.88;99021.25;5976246;29;98563;-58
2023/04/18 02:23:57;;;;;;;;;10.00;9.00;;;;;14.08;71.99;99036.16;5992759;29;96271;-59
2023/04/18 02:27:02;;;;;;;;;12.40;12.00;;;;;14.06;71.82;99038.31;5975740;29;96959;-58
2023/04/18 02:30:06;;;;;;;;;12.00;11.00;;;;;14.04;72.12;99040.44;5996821;29;96443;-59
2023/04/18 02:33:10;;;;;;;;;12.00;11.00;;;;;13.92;72.59;99036.13;5975621;29;96975;-59
2023/04/18 02:36:13;;;;;;;;;12.00;11.00;;;;;13.83;72.54;99038.34;5974121;29;96255;-59
2023/04/18 02:39:17;;;;;;;;;10.80;10.00;;;;;14.00;72.57;99031.13;5956739;29;96275;-58
2023/04/18 02:42:22;;;;;;;;;12.40;12.40;;;;;14.08;72.24;99030.75;5973282;29;96290;-59
2023/04/18 02:45:25;;;;;;;;;14.00;12.00;;;;;14.01;72.72;99040.91;5959522;29;96909;-58
2023/04/18 02:48:31;;;;;;;;;13.00;12.20;;;;;14.03;72.91;99027.94;5994505;29;96445;-59
2023/04/18 02:51:35;;;;;;;;;16.00;14.60;;;;;14.20;72.29;99036.97;5963286;29;99845;-59
2023/04/18 02:54:39;;;;;;;;;14.25;12.25;;;;;14.31;72.00;99038.00;5979101;29;96188;-58
2023/04/18 02:57:48;;;;;;;;;14.40;13.20;;;;;14.35;71.82;99038.31;5951952;29;96846;-59
2023/04/18 03:01:10;;;;;;;;;12.80;12.80;;;;;14.07;72.55;99050.81;5969816;29;97310;-58
2023/04/18 03:04:27;;;;;;;;;14.00;13.60;;;;;14.05;72.31;99046.69;5970435;29;96221;-59
2023/04/18 03:07:34;;;;;;;;;15.80;14.40;;;;;13.86;73.00;99043.31;5977636;29;96278;-60
2023/04/18 03:10:39;;;;;;;;;18.50;15.00;;;;;13.96;73.34;99057.06;5960666;29;96736;-60
2023/04/18 03:13:44;;;;;;;;;15.00;15.00;;;;;14.00;73.36;99055.53;5971239;29;96857;-60
2023/04/18 03:16:49;;;;;;;;;15.33;15.00;;;;;13.81;73.50;99045.91;5975134;29;96473;-60
2023/04/18 03:19:58;;;;;;;;;18.00;17.00;;;;;13.80;73.45;99050.50;5968424;29;96974;-61
2023/04/18 03:23:02;;;;;;;;;17.60;15.60;;;;;13.94;73.42;99055.66;5991350;29;96227;-61
2023/04/18 03:26:07;;;;;;;;;16.20;15.20;;;;;13.97;73.42;99063.31;5989572;29;96873;-59
2023/04/18 03:29:14;;;;;;;;;17.00;16.00;;;;;13.95;73.35;99060.00;5984883;29;96611;-60
2023/04/18 03:32:21;;;;;;;;;15.40;13.40;;;;;13.98;73.18;99064.94;5984424;29;96599;-60
2023/04/18 03:35:24;;;;;;;;;15.00;13.75;;;;;14.09;72.91;99069.53;5999211;29;96328;-60
2023/04/18 03:38:27;;;;;;;;;16.00;15.60;;;;;14.01;72.68;99070.72;5977838;29;96273;-60
2023/04/18 03:41:31;;;;;;;;;18.40;17.00;;;;;13.94;73.14;99075.44;5994670;29;98806;-61
2023/04/18 03:44:35;;;;;;;;;15.40;13.60;;;;;13.86;73.09;99075.84;5989892;29;96996;-60
2023/04/18 03:47:39;;;;;;;;;16.50;15.00;;;;;13.93;73.14;99083.84;5981994;29;96322;-60
2023/04/18 03:50:43;;;;;;;;;21.00;19.00;;;;;14.05;72.86;99082.75;5985130;29;96238;-60
2023/04/18 03:53:47;;;;;;;;;15.00;15.00;;;;;14.17;72.39;99083.53;5974120;29;96446;-60
2023/04/18 03:56:52;;;;;;;;;17.00;15.00;;;;;14.14;72.07;99073.16;5974108;29;96969;-60
2023/04/18 03:59:57;;;;;;;;;17.80;16.00;;;;;14.11;72.08;99086.38;5967784;29;97221;-61
2023/04/18 04:03:02;;;;;;;;;16.40;13.00;;;;;14.11;71.99;99089.09;5981672;29;96291;-60
2023/04/18 04:06:06;;;;;;;;;16.00;14.75;;;;;14.04;72.10;99094.66;5986456;29;96339;-61
2023/04/18 04:09:09;;;;;;;;;18.00;17.60;;;;;14.05;71.90;99104.44;5981422;29;96304;-60
2023/04/18 04:12:13;;;;;;;;;16.60;14.60;;;;;13.97;71.91;99102.09;5967378;29;96697;-60
2023/04/18 04:15:19;;;;;;;;;18.00;17.00;;;;;14.05;71.84;99106.31;5983385;29;96249;-61
2023/04/18 04:18:30;;;;;;;;;17.60;15.00;;;;;13.95;71.84;99112.34;5979042;29;97619;-60
2023/04/18 04:21:36;;;;;;;;;14.50;13.50;;;;;13.89;71.81;99116.00;5975246;29;96722;-61
2023/04/18 04:24:41;;;;;;;;;15.00;13.00;;;;;13.92;71.80;99122.84;5979173;29;96269;-61
2023/04/18 04:27:48;;;;;;;;;17.00;15.25;;;;;13.93;71.76;99122.59;5996329;29;97540;-60
2023/04/18 04:30:54;;;;;;;;;15.60;15.60;;;;;13.91;71.52;99115.78;5981103;29;96223;-60
2023/04/18 04:33:57;;;;;;;;;18.00;17.00;;;;;14.04;71.20;99148.88;5984100;29;96428;-60
2023/04/18 04:37:01;;;;;;;;;18.60;17.00;;;;;14.05;70.99;99144.28;5982852;29;96586;-61
2023/04/18 04:40:08;;;;;;;;;19.00;17.40;;;;;14.09;70.49;99148.16;5966237;29;98458;-60
2023/04/18 04:43:41;;;;;;;;;17.00;16.00;;;;;14.16;70.10;99149.69;5993247;29;96235;-60
2023/04/18 04:46:49;;;;;;;;;19.20;17.80;;;;;14.28;69.90;99155.06;5981943;29;96250;-60
2023/04/18 04:49:58;;;;;;;;;18.00;16.00;;;;;14.30;69.58;99156.50;5978986;29;96239;-60
2023/04/18 04:53:01;;;;;;;;;14.60;12.20;;;;;14.31;69.07;99150.00;5988404;29;96966;-60
2023/04/18 04:56:05;;;;;;;;;18.20;15.60;;;;;14.40;69.02;99152.38;5978784;29;96422;-60
2023/04/18 04:59:09;;;;;;;;;18.00;15.20;;;;;14.40;68.93;99163.22;5978851;29;97303;-60
2023/04/18 05:02:21;;;;;;;;;16.00;15.40;;;;;14.38;68.51;99163.44;5994175;29;96287;-60
2023/04/18 05:05:25;;;;;;;;;14.00;14.00;;;;;14.40;68.66;99172.19;5994260;29;96527;-60
2023/04/18 05:08:28;;;;;;;;;15.00;14.00;;;;;14.39;68.23;99162.41;5994331;29;96500;-60
2023/04/18 05:11:32;;;;;;;;;17.00;16.40;;;;;14.36;68.07;99149.31;5978268;29;96718;-60
2023/04/18 05:14:35;;;;;;;;;15.00;14.25;;;;;14.47;67.74;99174.75;5993886;29;96600;-60
2023/04/18 05:17:39;;;;;;;;;16.40;15.00;;;;;14.43;67.75;99185.25;5990789;29;96307;-59
2023/04/18 05:20:43;;;;;;;;;18.00;17.60;;;;;14.43;67.87;99174.41;5985646;29;96444;-59
2023/04/18 05:23:46;;;;;;;;;16.00;15.00;;;;;14.33;67.56;99171.44;5977463;29;96484;-59
2023/04/18 05:26:50;;;;;;;;;15.50;14.00;;;;;14.48;67.56;99169.09;5977710;29;97077;-58
2023/04/18 05:29:53;;;;;;;;;16.00;15.00;;;;;14.47;67.01;99174.75;5976233;29;97168;-59
2023/04/18 05:32:58;;;;;;;;;17.00;16.00;;;;;14.57;67.15;99181.22;5975112;29;96510;-59
2023/04/18 05:36:01;;;;;;;;;16.00;15.00;;;;;14.51;67.00;99178.66;5979601;29;96324;-59
2023/04/18 05:39:05;;;;;;;;;16.00;15.00;;;;;14.54;66.85;99183.59;5986847;29;96280;-59
2023/04/18 05:42:08;;;;;;;;;18.40;17.40;;;;;14.60;67.08;99178.03;5977706;29;96276;-58
2023/04/18 05:45:12;;;;;;;;;17.00;15.00;;;;;14.67;66.66;99181.41;5974689;29;96689;-59
2023/04/18 05:48:16;;;;;;;;;17.20;16.00;;;;;14.60;66.25;99185.34;5984635;29;97059;-59
2023/04/18 05:51:20;;;;;;;;;17.50;17.00;;;;;14.59;66.09;99189.13;5984494;29;96337;-59
2023/04/18 05:54:24;;;;;;;;;15.00;14.00;;;;;14.62;66.19;99196.78;5965667;29;96943;-58
2023/04/18 05:57:27;;;;;;;;;16.40;16.00;;;;;14.46;65.96;99192.94;5963994;29;96984;-58
2023/04/18 06:00:30;;;;;;;;;17.00;14.00;;;;;14.44;66.01;99189.63;5946946;29;96653;-59
2023/04/18 06:03:35;;;;;;;;;17.00;16.25;;;;;14.41;66.16;99186.59;5961797;29;96319;-60
2023/04/18 06:06:39;;;;;;;;;17.00;15.00;;;;;14.48;66.06;99188.09;5963319;29;96518;-59
2023/04/18 06:09:42;;;;;;;;;16.20;14.40;;;;;14.51;65.84;99193.03;5945644;29;98506;-59
2023/04/18 06:12:45;;;;;;;;;16.20;16.00;;;;;14.54;66.53;99183.59;5962838;29;96426;-60
2023/04/18 06:15:49;;;;;;;;;17.00;16.60;;;;;14.59;65.35;99194.53;5946500;29;96317;-59
2023/04/18 06:18:54;;;;;;;;;19.40;16.60;;;;;14.55;64.81;99187.97;5947908;29;96364;-59
2023/04/18 06:21:57;;;;;;;;;18.00;15.00;;;;;14.65;65.05;99193.59;5967402;29;96536;-59
2023/04/18 06:25:01;;;;;;;;;19.00;17.00;;;;;14.59;64.63;99197.25;5986003;29;96228;-60
2023/04/18 06:28:04;;;;;;;;;20.40;18.40;;;;;14.71;64.39;99204.28;5986383;29;96330;-59
2023/04/18 06:31:08;;;;;;;;;15.80;15.80;;;;;14.86;64.35;99211.09;5986683;29;97411;-59
2023/04/18 06:34:12;;;;;;;;;20.00;18.00;;;;;14.71;63.24;99185.28;5986239;29;96315;-59
2023/04/18 06:37:17;;;;;;;;;16.33;15.00;;;;;14.69;62.80;99216.47;5955233;29;96942;-59
2023/04/18 06:40:20;;;;;;;;;18.40;17.00;;;;;14.55;62.68;99210.50;5986734;29;96318;-59
2023/04/18 06:43:23;;;;;;;;;19.00;17.00;;;;;14.69;63.32;99221.91;5986292;29;96250;-59
2023/04/18 06:46:27;;;;;;;;;20.25;16.25;;;;;14.62;63.57;99221.19;5986638;29;96383;-59
2023/04/18 06:49:31;;;;;;;;;17.00;16.00;;;;;14.58;62.84;99220.84;5976105;29;96545;-59
2023/04/18 06:52:39;;;;;;;;;17.20;15.20;;;;;14.62;63.13;99229.34;5968321;29;96312;-58
2023/04/18 06:55:42;;;;;;;;;17.67;13.33;;;;;14.61;63.14;99231.22;5964078;29;96271;-60
2023/04/18 06:58:46;;;;;;;;;17.80;16.80;;;;;14.59;62.68;99229.81;5962589;29;96292;-59
2023/04/18 07:01:49;;;;;;;;;18.50;16.00;;;;;14.74;63.14;99233.69;5962517;29;96462;-59
2023/04/18 07:04:54;;;;;;;;;18.00;16.60;;;;;14.90;62.86;99229.41;5962460;29;96338;-59
2023/04/18 07:07:57;;;;;;;;;17.75;17.00;;;;;14.92;61.82;99243.53;5964223;29;96586;-59
2023/04/18 07:11:00;;;;;;;;;17.00;15.00;;;;;15.08;61.00;99236.53;5962780;29;96291;-59
2023/04/18 07:14:03;;;;;;;;;18.00;17.00;;;;;15.23;60.54;99241.41;5945612;29;99254;-59
2023/04/18 07:17:07;;;;;;;;;16.50;15.00;;;;;15.37;59.54;99237.31;5962186;29;96333;-59
2023/04/18 07:20:12;;;;;;;;;16.00;15.00;;;;;15.58;59.08;99242.09;5946448;29;96419;-59
2023/04/18 07:23:16;;;;;;;;;15.00;13.80;;;;;15.95;58.47;99240.53;5963052;29;96379;-59
2023/04/18 07:26:20;;;;;;;;;13.00;13.00;;;;;15.93;57.72;99247.31;5969510;29;96611;-59
2023/04/18 07:29:23;;;;;;;;;16.00;15.00;;;;;15.89;57.76;99248.84;5985575;29;96949;-59
2023/04/18 07:32:26;;;;;;;;;17.00;15.00;;;;;15.87;57.18;99248.28;5985151;29;96790;-59
2023/04/18 07:35:32;;;;;;;;;15.25;14.00;;;;;15.92;56.45;99256.53;5985829;29;96562;-58
2023/04/18 07:38:35;;;;;;;;;14.40;14.00;;;;;15.81;56.29;99246.56;5986238;29;96525;-59
2023/04/18 07:41:38;;;;;;;;;15.25;14.25;;;;;16.07;56.87;99253.22;5988445;29;96868;-59
2023/04/18 07:44:41;;;;;;;;;18.00;17.00;;;;;16.28;56.21;99249.72;5971913;29;97305;-59
2023/04/18 07:47:45;;;;;;;;;17.00;15.40;;;;;16.72;55.57;99242.47;5988167;29;96797;-60
2023/04/18 07:50:50;;;;;;;;;17.00;15.00;;;;;17.01;54.13;99249.38;5988401;29;96303;-59
2023/04/18 07:53:53;;;;;;;;;14.00;13.00;;;;;17.27;53.39;99247.75;5968245;29;96226;-59
2023/04/18 07:56:56;;;;;;;;;17.00;16.00;;;;;17.61;50.86;99256.59;5977496;29;96867;-59
2023/04/18 08:00:00;;;;;;;;;18.40;16.40;;;;;17.64;50.21;99250.63;5976340;29;96375;-59
2023/04/18 08:03:03;;;;;;;;;14.60;13.40;;;;;18.01;50.19;99254.22;5978037;29;96521;-59
2023/04/18 08:06:08;;;;;;;;;14.25;13.25;;;;;18.25;49.25;99256.56;5980762;29;96531;-59
2023/04/18 08:09:12;;;;;;;;;17.50;16.00;;;;;18.32;47.81;99254.44;5990576;29;96271;-59
2023/04/18 08:12:15;;;;;;;;;13.60;13.20;;;;;18.76;46.93;99261.28;5989151;29;96319;-60
2023/04/18 08:15:18;;;;;;;;;14.25;13.00;;;;;18.92;46.70;99257.53;5988781;29;96280;-60
2023/04/18 08:18:22;;;;;;;;;11.67;10.67;;;;;19.29;45.87;99249.19;5988980;29;96297;-59
2023/04/18 08:21:27;;;;;;;;;14.00;12.00;;;;;19.87;46.18;99239.72;5986177;29;96396;-60
2023/04/18 08:24:30;;;;;;;;;13.50;13.00;;;;;20.09;44.44;99252.28;5975701;29;96909;-59
2023/04/18 08:27:34;;;;;;;;;11.00;10.40;;;;;19.97;42.64;99263.53;5967273;29;96298;-59
2023/04/18 08:30:37;;;;;;;;;11.00;10.00;;;;;20.26;43.30;99258.31;5966158;29;96478;-59
2023/04/18 08:33:40;;;;;;;;;10.00;9.00;;;;;19.89;42.09;99264.06;5967171;29;96214;-59
2023/04/18 08:36:46;;;;;;;;;12.40;11.00;;;;;19.69;42.39;99258.59;5967347;29;96778;-60
2023/04/18 08:39:49;;;;;;;;;11.00;10.00;;;;;19.68;42.29;99274.19;5967425;29;96598;-59
2023/04/18 08:42:53;;;;;;;;;11.75;11.75;;;;;19.64;41.57;99264.06;5967607;29;96113;-59
2023/04/18 08:45:59;;;;;;;;;12.60;11.00;;;;;20.45;42.06;99261.31;5935019;29;96848;-59
2023/04/18 08:49:03;;;;;;;;;12.00;10.00;;;;;;;;5967038;29;96257;-59
2023/04/18 08:52:12;;;;;;;;;10.60;10.60;;;;;21.23;39.66;99272.59;5970840;29;96370;-59
2023/04/18 08:55:17;;;;;;;;;10.60;9.60;;;;;21.36;38.55;99261.00;5990184;29;96304;-59
2023/04/18 08:58:22;;;;;;;;;7.60;7.60;;;;;21.50;38.48;99268.31;5989865;29;96453;-59
2023/04/18 09:01:50;;;;;;;;;10.00;10.00;;;;;21.64;38.03;99267.69;5990173;29;96925;-60
2023/04/18 09:04:54;;;;;;;;;11.25;11.00;;;;;21.90;37.95;99252.66;5989707;29;96362;-60
2023/04/18 09:08:20;;;;;;;;;10.20;7.80;;;;;22.27;36.01;99271.34;5989048;29;97628;-60
2023/04/18 09:11:25;;;;;;;;;9.75;8.75;;;;;22.07;36.01;99263.28;5973938;29;96972;-59
2023/04/18 09:14:29;;;;;;;;;11.25;9.25;;;;;22.27;37.42;99254.88;5989627;29;96258;-60
2023/04/18 09:17:34;;;;;;;;;11.40;10.40;;;;;22.34;36.66;99255.31;5983427;29;96333;-60
2023/04/18 09:20:39;;;;;;;;;10.40;10.00;;;;;22.44;36.97;99247.81;5989850;29;96507;-59
2023/04/18 09:23:46;;;;;;;;;10.00;10.00;;;;;22.02;37.02;99259.47;5988373;29;96365;-60
2023/04/18 09:26:52;;;;;;;;;9.00;8.00;;;;;21.53;36.21;99254.03;5972220;29;96270;-60
2023/04/18 09:29:56;;;;;;;;;8.00;7.00;;;;;21.52;35.39;99255.13;5988413;29;96258;-60
2023/04/18 09:33:01;;;;;;;;;8.00;8.00;;;;;21.51;36.14;99258.97;5988985;29;96238;-60
2023/04/18 09:36:18;;;;;;;;;7.80;7.80;;;;;21.46;35.89;99250.78;5978490;29;96417;-60
2023/04/18 09:39:28;;;;;;;;;8.00;7.00;;;;;21.85;35.76;99249.97;5981258;29;96517;-60
2023/04/18 09:42:36;;;;;;;;;10.00;8.00;;;;;22.25;36.11;99243.34;5977786;29;96270;-60
2023/04/18 09:45:40;;;;;;;;;9.20;8.20;;;;;22.49;35.02;99233.19;5969416;29;96684;-60
2023/04/18 09:48:43;;;;;;;;;8.00;8.00;;;;;22.20;34.56;99252.44;5971530;29;98733;-60
2023/04/18 09:51:49;;;;;;;;;9.00;8.40;;;;;22.43;34.05;99248.91;5988972;29;96268;-60
2023/04/18 09:54:58;;;;;;;;;7.00;6.60;;;;;22.89;34.29;99252.00;5989070;29;96294;-60
2023/04/18 09:58:03;;;;;;;;;9.00;8.00;;;;;22.69;34.07;99248.66;5988899;29;96435;-60
2023/04/18 10:01:07;;;;;;;;;8.20;7.80;;;;;23.01;33.84;99245.28;5989496;29;96490;-60
2023/04/18 10:04:12;;;;;;;;;9.00;8.00;;;;;23.24;31.65;99245.25;5988223;29;96296;-59
2023/04/18 10:07:16;;;;;;;;;7.00;7.00;;;;;22.94;31.98;99242.06;5956426;29;98955;-60
2023/04/18 10:10:21;;;;;;;;;7.00;6.40;;;;;22.65;31.47;99228.34;5987985;29;96297;-59
2023/04/18 10:13:27;;;;;;;;;6.00;6.00;;;;;23.01;30.73;99239.78;5989265;29;96849;-60
2023/04/18 10:16:31;;;;;;;;;8.00;7.00;;;;;22.92;30.78;99236.06;5979246;29;96303;-60
2023/04/18 10:19:40;;;;;;;;;7.00;6.60;;;;;23.16;31.32;99245.09;5966105;29;96544;-60
2023/04/18 10:22:43;;;;;;;;;8.60;8.00;;;;;23.30;31.14;99235.81;5984103;29;96430;-60
2023/04/18 10:25:52;;;;;;;;;8.00;7.00;;;;;23.04;30.89;99223.50;5988851;29;96484;-60
2023/04/18 10:28:56;;;;;;;;;7.00;6.00;;;;;23.67;31.36;99235.00;5987726;29;96466;-59
2023/04/18 10:32:05;;;;;;;;;9.60;9.00;;;;;23.94;29.86;99236.25;5971538;29;97198;-59
2023/04/18 10:35:10;;;;;;;;;7.00;7.00;;;;;22.94;30.43;99228.31;5971857;29;98538;-60
2023/04/18 10:38:16;;;;;;;;;8.00;7.75;;;;;23.26;31.35;99231.19;5989258;29;96271;-60
2023/04/18 10:41:23;;;;;;;;;7.40;7.00;;;;;23.61;30.85;99233.44;5989180;29;96287;-60
2023/04/18 10:44:27;;;;;;;;;6.00;6.00;;;;;23.88;31.61;99229.19;5972236;29;96667;-60
2023/04/18 10:47:30;;;;;;;;;8.00;7.00;;;;;24.00;30.56;99227.59;5983037;29;96673;-60
2023/04/18 10:50:34;;;;;;;;;6.25;6.00;;;;;24.35;29.67;99228.09;5991795;29;96077;-59
2023/04/18 10:53:37;;;;;;;;;8.00;7.00;;;;;24.05;28.71;99213.72;5992355;29;96536;-60
2023/04/18 10:56:52;;;;;;;;;8.00;6.20;;;;;24.27;29.32;99217.78;5977312;29;96679;-60
2023/04/18 10:59:56;;;;;;;;;7.50;6.50;;;;;24.65;29.14;99218.44;5993808;29;96575;-60
2023/04/18 11:02:59;;;;;;;;;5.40;5.00;;;;;24.77;28.42;99213.25;5993427;29;96364;-60
2023/04/18 11:06:03;;;;;;;;;5.60;5.60;;;;;24.41;27.82;99215.88;5992918;29;96376;-60
2023/04/18 11:09:10;;;;;;;;;7.00;6.40;;;;;24.70;28.87;99218.34;5995071;29;96351;-60
2023/04/18 11:12:15;;;;;;;;;5.00;5.00;;;;;25.20;28.12;99216.50;5981854;29;96307;-60
2023/04/18 11:15:21;;;;;;;;;7.00;7.00;;;;;24.75;26.92;99212.72;5989977;29;96282;-60
2023/04/18 11:18:24;;;;;;;;;8.00;7.00;;;;;24.79;27.38;99208.22;5996396;29;97013;-60
2023/04/18 11:21:30;;;;;;;;;6.40;6.40;;;;;24.95;27.08;99212.34;5991447;29;96269;-59
2023/04/18 11:24:34;;;;;;;;;7.00;6.00;;;;;24.89;27.44;99214.38;5995368;29;96266;-59
2023/04/18 11:27:41;;;;;;;;;5.00;5.00;;;;;24.83;26.61;99209.25;5994639;29;97701;-60
2023/04/18 11:30:44;;;;;;;;;6.75;6.00;;;;;24.93;27.00;99211.81;5994858;29;97139;-59
2023/04/18 11:33:48;;;;;;;;;6.00;5.20;;;;;24.81;26.43;99223.34;5976616;29;96390;-60
2023/04/18 11:36:52;;;;;;;;;8.00;8.00;;;;;24.86;27.13;99205.88;5969424;29;97310;-60
2023/04/18 11:39:55;;;;;;;;;7.00;6.40;;;;;24.81;27.19;99203.22;5971197;29;96822;-59
2023/04/18 11:43:03;;;;;;;;;5.60;5.00;;;;;24.55;25.91;99206.50;5970351;29;96826;-60
2023/04/18 11:46:06;;;;;;;;;5.40;4.40;;;;;24.32;27.04;99207.50;5955657;29;96561;-60
2023/04/18 11:49:24;;;;;;;;;5.20;4.60;;;;;24.40;27.46;99203.22;5970805;29;96761;-59
2023/04/18 11:52:29;;;;;;;;;6.00;6.00;;;;;24.53;28.67;99200.47;5975161;29;96334;-60
2023/04/18 11:55:33;;;;;;;;;5.00;5.00;;;;;24.90;28.57;99205.00;5961444;29;96323;-59
2023/04/18 11:58:38;;;;;;;;;7.00;7.00;;;;;25.15;27.03;99200.06;5992398;29;96372;-59
2023/04/18 12:01:41;;;;;;;;;7.25;6.00;;;;;24.66;26.06;99201.59;5995063;29;96610;-60
2023/04/18 12:04:56;;;;;;;;;5.60;5.00;;;;;24.44;26.03;99195.97;5978485;29;96702;-60
2023/04/18 12:08:08;;;;;;;;;6.00;6.00;;;;;24.24;25.43;99191.66;5990820;29;96353;-59
2023/04/18 12:11:20;;;;;;;;;9.40;9.40;;;;;24.09;26.17;99195.47;5995681;29;96422;-59
2023/04/18 12:14:25;;;;;;;;;7.60;7.00;;;;;24.09;26.02;99197.44;5994730;29;96244;-59
2023/04/18 12:17:28;;;;;;;;;6.00;4.75;;;;;23.90;25.99;99202.97;5993136;29;96565;-60
2023/04/18 12:20:36;;;;;;;;;5.60;5.00;;;;;23.74;26.02;99199.69;5992993;29;96078;-59
2023/04/18 12:23:44;;;;;;;;;7.00;6.50;;;;;23.35;26.22;99190.91;5978607;29;96707;-59
2023/04/18 12:26:48;;;;;;;;;8.00;8.00;;;;;23.69;27.13;99186.00;5994290;29;96368;-60
2023/04/18 12:29:53;;;;;;;;;6.00;5.80;;;;;23.93;25.99;99188.63;5993389;29;96284;-59
2023/04/18 12:32:58;;;;;;;;;6.00;6.00;;;;;23.78;26.46;99188.88;5994586;29;96179;-59
2023/04/18 12:36:04;;;;;;;;;6.00;6.00;;;;;23.35;26.78;99182.66;5992565;29;96263;-59
2023/04/18 12:39:07;;;;;;;;;5.40;5.00;;;;;23.46;28.03;99189.63;5992371;29;96855;-60
2023/04/18 12:42:11;;;;;;;;;7.00;6.00;;;;;23.19;28.48;99178.47;5975345;29;97467;-60
2023/04/18 12:45:17;;;;;;;;;6.00;6.00;;;;;23.17;29.27;99175.19;5994183;29;96859;-59
2023/04/18 12:48:21;;;;;;;;;5.00;5.00;;;;;23.27;29.10;99175.03;5984150;29;96829;-60
2023/04/18 12:51:26;;;;;;;;;7.00;6.00;;;;;23.40;28.68;99179.81;5974017;29;96245;-60
2023/04/18 12:54:29;;;;;;;;;6.75;6.00;;;;;23.05;27.75;99175.66;5987390;29;96079;-59
2023/04/18 12:57:33;;;;;;;;;6.80;6.00;;;;;23.13;29.11;99180.47;5981713;29;96330;-60
2023/04/18 13:00:37;;;;;;;;;5.00;5.00;;;;;23.15;27.09;99178.25;5993783;29;96506;-60
2023/04/18 13:03:41;;;;;;;;;6.00;5.00;;;;;23.20;29.11;99175.44;5986473;29;96834;-59
2023/04/18 13:06:45;;;;;;;;;4.60;4.00;;;;;23.18;27.29;99176.84;5988667;29;96756;-60
2023/04/18 13:09:48;;;;;;;;;7.00;5.00;;;;;23.10;26.87;99172.81;5972251;29;96389;-60
2023/04/18 13:12:52;;;;;;;;;5.80;5.80;;;;;22.83;27.08;99170.69;5967420;29;96448;-59
2023/04/18 13:15:57;;;;;;;;;7.00;7.00;;;;;22.45;27.06;99171.69;5969526;29;96304;-60
2023/04/18 13:19:00;;;;;;;;;6.80;5.20;;;;;22.55;27.60;99176.25;5971356;29;96539;-60
2023/04/18 13:22:04;;;;;;;;;4.75;4.75;;;;;22.29;27.24;99182.03;5964556;29;98560;-60
2023/04/18 13:25:09;;;;;;;;;5.50;4.00;;;;;22.13;25.81;99183.31;5993072;29;96825;-59
2023/04/18 13:28:12;;;;;;;;;5.00;5.00;;;;;22.06;26.84;99171.03;5973459;29;96888;-59
2023/04/18 13:31:17;;;;;;;;;6.00;5.00;;;;;21.81;26.54;99155.56;5981073;29;96290;-59
2023/04/18 13:34:20;;;;;;;;;5.00;5.00;;;;;21.97;26.66;99177.16;5992892;29;96500;-60
2023/04/18 13:37:24;;;;;;;;;5.00;5.00;;;;;21.83;26.92;99176.16;5991893;29;96769;-59
2023/04/18 13:40:28;;;;;;;;;3.20;3.00;;;;;21.74;26.79;99175.16;5990721;29;96301;-59
2023/04/18 13:43:31;;;;;;;;;6.00;5.00;;;;;21.67;27.18;99171.06;5992498;29;96803;-60
2023/04/18 13:46:36;;;;;;;;;5.00;5.00;;;;;21.72;27.82;99168.28;5991718;29;97525;-60
2023/04/18 13:49:39;;;;;;;;;7.00;6.00;;;;;21.74;28.75;99163.34;5990538;29;96868;-60
2023/04/18 13:52:43;;;;;;;;;6.00;6.00;;;;;21.81;28.63;99158.31;5991823;29;96284;-59
2023/04/18 13:55:46;;;;;;;;;6.50;6.00;;;;;21.94;29.00;99169.47;5990708;29;96696;-60
2023/04/18 13:58:49;;;;;;;;;6.50;5.50;;;;;21.91;28.84;99160.97;5992293;29;96211;-60
2023/04/18 14:01:55;;;;;;;;;5.00;5.00;;;;;21.90;28.40;99165.66;5985409;29;96440;-60
2023/04/18 14:04:58;;;;;;;;;4.60;4.60;;;;;21.99;29.08;99168.63;5990451;29;96391;-60
2023/04/18 14:08:02;;;;;;;;;7.60;7.60;;;;;22.17;28.49;99161.59;5975236;29;96973;-60
2023/04/18 14:11:06;;;;;;;;;7.50;6.50;;;;;22.32;29.53;99153.19;5969763;29;96282;-59
2023/04/18 14:14:09;;;;;;;;;6.00;6.00;;;;;22.51;28.45;99150.50;5986860;29;96250;-59
2023/04/18 14:17:14;;;;;;;;;6.00;5.80;;;;;22.60;28.51;99157.78;5991540;29;96247;-59
2023/04/18 14:20:18;;;;;;;;;6.40;5.00;;;;;22.45;27.78;99153.28;5983869;29;97971;-60